Time;durP1;ratioP1;P1;durP2;ratioP2;P2;SDS_P1;SDS_P2;PMS_P1;PMS_P2;Temp;Humidity;BMP_temperature;BMP_pressure;BME280_temperature;BME280_humidity;BME280_pressure;Samples;Min_cycle;Max_cycle;Signal;HPM_P1;HPM_P2
2021/09/24 00:00:52;;;;;;;5.87;5.27;;;;;;;15.73;80.42;96591.03;4978053;28;20456;-53
2021/09/24 00:03:17;;;;;;;6.60;6.00;;;;;;;15.80;80.03;96606.75;4977484;28;20425;-52
2021/09/24 00:05:43;;;;;;;5.37;4.60;;;;;;;15.57;81.12;96601.75;4977999;28;20511;-52
2021/09/24 00:08:08;;;;;;;5.80;5.23;;;;;;;15.64;81.49;96592.56;4977874;28;20170;-53
2021/09/24 00:10:34;;;;;;;6.47;5.80;;;;;;;15.64;80.98;96597.03;4978305;28;20186;-59
2021/09/24 00:12:59;;;;;;;5.70;5.20;;;;;;;15.49;82.12;96591.63;4977419;28;20186;-53
2021/09/24 00:15:25;;;;;;;5.47;4.97;;;;;;;15.59;81.57;96597.81;4977563;28;20202;-53
2021/09/24 00:17:50;;;;;;;7.13;5.30;;;;;;;15.90;80.03;96589.06;4977864;28;20182;-52
2021/09/24 00:20:15;;;;;;;6.20;5.43;;;;;;;15.92;79.85;96594.13;4977678;28;20566;-53
2021/09/24 00:22:41;;;;;;;5.40;4.80;;;;;;;15.75;80.45;96596.88;4977261;28;20288;-52
2021/09/24 00:25:08;;;;;;;7.50;5.77;;;;;;;15.73;80.37;96591.03;4977597;28;20190;-59
2021/09/24 00:27:33;;;;;;;6.23;5.60;;;;;;;15.95;79.64;96583.00;4978222;28;20636;-59
2021/09/24 00:29:58;;;;;;;6.60;5.90;;;;;;;15.90;79.92;96573.19;4977564;28;20421;-53
2021/09/24 00:32:24;;;;;;;5.23;4.83;;;;;;;15.84;80.19;96574.19;4977181;28;20257;-59
2021/09/24 00:34:50;;;;;;;7.17;5.47;;;;;;;15.98;79.46;96580.63;4976909;28;20205;-59
2021/09/24 00:37:16;;;;;;;6.17;5.60;;;;;;;15.78;80.04;96569.88;4977150;28;20565;-59
2021/09/24 00:39:42;;;;;;;6.20;5.67;;;;;;;15.85;79.86;96575.75;4977280;28;20413;-59
2021/09/24 00:42:07;;;;;;;6.73;5.23;;;;;;;15.78;80.60;96569.88;4977362;28;20548;-58
2021/09/24 00:44:41;;;;;;;5.47;5.03;;;;;;;15.76;80.45;96569.34;4976792;28;20418;-58
2021/09/24 00:47:07;;;;;;;5.07;4.67;;;;;;;15.70;80.70;96566.91;4977063;28;20198;-53
2021/09/24 00:49:32;;;;;;;7.50;5.60;;;;;;;15.72;80.57;96560.31;4977121;28;20437;-52
2021/09/24 00:51:58;;;;;;;6.50;5.87;;;;;;;15.87;80.08;96572.88;4977369;28;20402;-52
2021/09/24 00:54:24;;;;;;;6.70;5.80;;;;;;;15.88;79.80;96575.28;4976704;28;20182;-58
2021/09/24 00:56:52;;;;;;;6.20;5.67;;;;;;;15.98;79.39;96575.34;4977167;28;20532;-59
2021/09/24 00:59:18;;;;;;;7.10;5.67;;;;;;;16.23;78.17;96577.38;4977001;28;20217;-59
2021/09/24 01:01:43;;;;;;;6.07;5.47;;;;;;;16.30;77.81;96581.41;4976573;28;20540;-59
2021/09/24 01:04:09;;;;;;;6.83;6.13;;;;;;;16.36;77.56;96580.38;4976565;28;20505;-58
2021/09/24 01:06:35;;;;;;;6.07;5.33;;;;;;;16.41;77.32;96582.28;4976695;28;20189;-59
2021/09/24 01:09:00;;;;;;;5.77;5.27;;;;;;;16.52;76.74;96580.50;4976823;28;20178;-52
2021/09/24 01:11:26;;;;;;;5.80;5.30;;;;;;;16.60;76.48;96585.31;4976895;28;20412;-59
2021/09/24 01:13:51;;;;;;;6.93;5.13;;;;;;;16.67;76.19;96588.56;4976386;28;20181;-53
2021/09/24 01:16:16;;;;;;;6.10;5.40;;;;;;;16.72;75.97;96584.06;4976066;28;20228;-52
2021/09/24 01:18:42;;;;;;;9.83;7.10;;;;;;;16.72;76.05;96586.72;4976794;28;20214;-58
2021/09/24 01:21:10;;;;;;;11.53;5.93;;;;;;;16.77;75.65;96591.25;4976702;28;20202;-59
2021/09/24 01:23:36;;;;;;;6.67;6.10;;;;;;;16.77;75.24;96600.00;4976143;28;20181;-53
2021/09/24 01:26:02;;;;;;;9.10;5.47;;;;;;;16.76;74.90;96597.63;4976575;28;20437;-59
2021/09/24 01:28:27;;;;;;;8.33;5.13;;;;;;;16.75;74.90;96596.00;4976572;28;20190;-53
2021/09/24 01:30:52;;;;;;;11.23;6.17;;;;;;;16.74;74.39;96592.53;4975881;28;20177;-58
2021/09/24 01:33:18;;;;;;;6.67;5.50;;;;;;;16.78;73.71;96593.63;4976304;28;20182;-53
2021/09/24 01:35:43;;;;;;;8.03;5.80;;;;;;;16.75;73.97;96588.03;4976297;28;20194;-59
2021/09/24 01:38:09;;;;;;;10.37;5.47;;;;;;;16.69;74.10;96587.22;4976504;28;20289;-59
2021/09/24 01:40:34;;;;;;;6.30;5.70;;;;;;;16.67;73.62;96584.03;4976304;28;20196;-59
2021/09/24 01:43:00;;;;;;;10.03;6.00;;;;;;;16.62;73.82;96593.81;4975905;28;20174;-53
2021/09/24 01:45:25;;;;;;;5.90;5.30;;;;;;;16.53;75.05;96584.75;4975891;28;20198;-53
2021/09/24 01:47:50;;;;;;;6.20;5.70;;;;;;;16.35;75.90;96588.59;4975406;28;20181;-59
2021/09/24 01:50:16;;;;;;;6.27;5.70;;;;;;;16.11;77.08;96579.41;4975748;28;20189;-59
2021/09/24 01:52:42;;;;;;;7.10;6.40;;;;;;;15.80;78.69;96578.38;4975729;28;20177;-58
2021/09/24 01:55:08;;;;;;;9.17;6.03;;;;;;;15.79;78.51;96573.34;4976040;28;20425;-59
2021/09/24 01:57:34;;;;;;;6.40;5.70;;;;;;;15.82;78.68;96578.94;4975920;28;20206;-53
2021/09/24 01:59:59;;;;;;;6.70;5.63;;;;;;;15.85;78.60;96573.13;4976018;28;20445;-53
2021/09/24 02:02:25;;;;;;;6.13;5.63;;;;;;;15.90;78.41;96572.38;4975904;28;20248;-53
2021/09/24 02:04:50;;;;;;;16.03;6.33;;;;;;;16.00;77.55;96573.25;4975180;28;20260;-53
2021/09/24 02:07:16;;;;;;;7.63;5.90;;;;;;;15.89;77.38;96574.22;4975817;28;20653;-59
2021/09/24 02:09:42;;;;;;;5.40;4.90;;;;;;;15.79;78.64;96565.38;4975866;28;20174;-59
2021/09/24 02:12:08;;;;;;;6.00;5.40;;;;;;;15.92;78.35;96570.25;4975723;28;20215;-53
2021/09/24 02:14:34;;;;;;;5.47;4.97;;;;;;;15.90;78.52;96570.53;4975174;28;20497;-53
2021/09/24 02:16:59;;;;;;;5.83;5.33;;;;;;;15.81;78.90;96561.44;4975740;28;20232;-53
2021/09/24 02:19:25;;;;;;;6.40;5.67;;;;;;;15.65;79.54;96566.88;4975572;28;20913;-59
2021/09/24 02:21:50;;;;;;;6.00;5.03;;;;;;;15.43;81.10;96569.59;4975272;28;20261;-59
2021/09/24 02:24:16;;;;;;;6.60;5.53;;;;;;;15.62;80.19;96562.84;4974988;28;20170;-59
2021/09/24 02:26:41;;;;;;;8.20;5.80;;;;;;;15.46;80.92;96563.78;4975369;28;20555;-58
2021/09/24 02:29:07;;;;;;;6.17;5.57;;;;;;;15.16;82.65;96563.47;4975486;28;20245;-58
2021/09/24 02:31:32;;;;;;;6.07;5.57;;;;;;;14.93;84.01;96566.38;4975377;28;20540;-52
2021/09/24 02:33:58;;;;;;;5.90;5.40;;;;;;;14.76;84.98;96566.44;4974984;28;20174;-52
2021/09/24 02:36:23;;;;;;;6.33;5.53;;;;;;;14.69;85.58;96565.03;4975046;28;20198;-52
2021/09/24 02:38:49;;;;;;;7.47;5.63;;;;;;;14.74;85.34;96567.72;4975159;28;20190;-58
2021/09/24 02:41:15;;;;;;;7.07;6.40;;;;;;;14.69;85.92;96562.38;4974960;28;20751;-55
2021/09/24 02:43:41;;;;;;;6.80;6.10;;;;;;;14.51;87.00;96560.03;4974906;28;20186;-59
2021/09/24 02:46:06;;;;;;;6.33;5.70;;;;;;;14.55;86.63;96559.28;4975130;28;20441;-59
2021/09/24 02:48:31;;;;;;;6.80;6.10;;;;;;;14.59;86.31;96563.06;4975121;28;20257;-53
2021/09/24 02:50:57;;;;;;;6.60;5.93;;;;;;;14.65;86.29;96555.97;4974669;28;20641;-59
2021/09/24 02:53:22;;;;;;;7.10;5.57;;;;;;;14.77;85.68;96565.38;4974731;28;20582;-59
2021/09/24 02:55:48;;;;;;;6.67;6.07;;;;;;;14.69;86.10;96567.69;4974830;28;20677;-59
2021/09/24 02:58:13;;;;;;;5.93;5.30;;;;;;;14.79;85.54;96557.19;4974678;28;20221;-59
2021/09/24 03:00:38;;;;;;;7.00;6.30;;;;;;;14.44;87.28;96561.00;4974754;28;20182;-59
2021/09/24 03:03:04;;;;;;;6.70;6.10;;;;;;;14.30;87.87;96562.41;4974622;28;20180;-52
2021/09/24 03:05:30;;;;;;;6.57;5.97;;;;;;;14.34;87.99;96560.88;4974631;28;20207;-59
2021/09/24 03:07:56;;;;;;;6.13;5.63;;;;;;;14.46;87.55;96562.63;4974783;28;20421;-52
2021/09/24 03:10:21;;;;;;;6.97;6.27;;;;;;;14.39;87.83;96566.25;4974878;28;20185;-53
2021/09/24 03:12:46;;;;;;;7.07;6.30;;;;;;;14.54;87.30;96567.47;4973996;28;20621;-58
2021/09/24 03:15:13;;;;;;;7.40;6.70;;;;;;;14.16;88.86;96561.13;4974646;28;20202;-52
2021/09/24 03:17:38;;;;;;;7.60;6.47;;;;;;;14.19;89.08;96560.63;4974733;28;20185;-59
2021/09/24 03:20:06;;;;;;;7.33;6.63;;;;;;;14.15;89.36;96556.09;4974823;28;20413;-52
2021/09/24 03:22:31;;;;;;;7.20;6.57;;;;;;;14.15;89.23;96556.09;4974678;28;20277;-53
2021/09/24 03:24:56;;;;;;;7.00;6.33;;;;;;;13.91;90.34;96558.13;4974348;28;20468;-53
2021/09/24 03:27:22;;;;;;;7.57;6.77;;;;;;;13.97;90.99;96561.63;4974306;28;20189;-59
2021/09/24 03:29:47;;;;;;;6.80;6.17;;;;;;;14.00;90.58;96561.16;4974677;28;20185;-59
2021/09/24 03:32:18;;;;;;;7.87;6.70;;;;;;;14.14;89.91;96554.47;4974191;28;20692;-52
2021/09/24 03:34:43;;;;;;;7.00;6.30;;;;;;;14.30;89.00;96556.31;4973015;28;20197;-59
2021/09/24 03:37:09;;;;;;;7.30;6.70;;;;;;;14.09;89.99;96546.50;4974459;28;20468;-59
2021/09/24 03:39:34;;;;;;;6.53;5.93;;;;;;;14.15;89.61;96548.94;4974583;28;20264;-58
2021/09/24 03:41:59;;;;;;;7.07;6.20;;;;;;;14.16;90.07;96544.47;4974567;28;20696;-58
2021/09/24 03:44:25;;;;;;;12.60;6.70;;;;;;;14.08;89.67;96545.69;4974235;28;20233;-53
2021/09/24 03:46:50;;;;;;;7.50;6.80;;;;;;;14.30;88.86;96549.19;4974331;28;20181;-53
2021/09/24 03:49:15;;;;;;;9.37;5.60;;;;;;;14.28;88.14;96538.06;4974289;28;20649;-52
2021/09/24 03:51:41;;;;;;;7.07;6.37;;;;;;;14.10;89.66;96542.78;4974426;28;20175;-59
2021/09/24 03:54:06;;;;;;;6.77;6.17;;;;;;;14.11;89.72;96539.91;4973943;28;20205;-58
2021/09/24 03:56:32;;;;;;;9.10;7.43;;;;;;;14.14;89.31;96539.44;4974116;28;20208;-53
2021/09/24 03:58:57;;;;;;;6.70;6.00;;;;;;;14.05;90.18;96550.66;4974230;28;20220;-58
2021/09/24 04:01:23;;;;;;;7.50;6.67;;;;;;;13.79;91.18;96549.47;4974301;28;20197;-52
2021/09/24 04:03:48;;;;;;;7.50;6.30;;;;;;;13.80;91.47;96548.44;4973854;28;20205;-52
2021/09/24 04:06:13;;;;;;;7.63;6.83;;;;;;;13.89;90.41;96544.34;4974356;28;20202;-58
2021/09/24 04:08:39;;;;;;;7.90;6.40;;;;;;;13.99;90.21;96551.59;4974353;28;20169;-53
2021/09/24 04:11:04;;;;;;;9.20;6.17;;;;;;;14.08;89.74;96555.44;4975729;28;20595;-58
2021/09/24 04:13:30;;;;;;;7.17;6.47;;;;;;;14.16;89.13;96555.03;4977470;28;20182;-59
2021/09/24 04:15:55;;;;;;;7.80;6.97;;;;;;;14.28;88.07;96553.13;4977860;28;20202;-52
2021/09/24 04:18:21;;;;;;;7.30;6.23;;;;;;;14.24;88.22;96552.78;4977636;28;20170;-59
2021/09/24 04:20:47;;;;;;;7.03;6.30;;;;;;;14.31;88.18;96550.00;4977810;28;20182;-59
2021/09/24 04:23:13;;;;;;;9.10;6.93;;;;;;;14.20;88.01;96549.00;4977406;28;20174;-53
2021/09/24 04:25:39;;;;;;;7.40;6.70;;;;;;;14.35;87.52;96543.16;4977424;28;20445;-52
2021/09/24 04:28:04;;;;;;;8.67;7.77;;;;;;;14.14;88.44;96550.00;4977508;28;20424;-59
2021/09/24 04:30:29;;;;;;;7.73;6.93;;;;;;;14.05;89.00;96548.81;4977540;28;20174;-52
2021/09/24 04:32:55;;;;;;;7.80;7.00;;;;;;;14.09;88.40;96559.69;4977281;28;20657;-59
2021/09/24 04:35:20;;;;;;;7.83;7.00;;;;;;;14.34;87.56;96560.88;4977378;28;20202;-52
2021/09/24 04:37:46;;;;;;;7.30;6.70;;;;;;;14.34;87.34;96560.88;4977224;28;20532;-58
2021/09/24 04:40:12;;;;;;;6.97;6.33;;;;;;;14.41;87.00;96563.34;4977194;28;20507;-53
2021/09/24 04:42:37;;;;;;;7.13;6.43;;;;;;;14.59;86.64;96567.53;4977014;28;20681;-58
2021/09/24 04:45:03;;;;;;;8.27;6.00;;;;;;;14.43;86.93;96559.44;4977138;28;20518;-59
2021/09/24 04:47:28;;;;;;;7.33;6.63;;;;;;;14.59;86.48;96556.94;4977370;28;20174;-52
2021/09/24 04:49:54;;;;;;;6.73;6.13;;;;;;;14.60;85.91;96554.09;4977174;28;20180;-52
2021/09/24 04:52:21;;;;;;;7.70;7.00;;;;;;;14.68;85.92;96553.66;4977224;28;20217;-59
2021/09/24 04:54:47;;;;;;;6.40;5.60;;;;;;;14.80;85.06;96556.19;4976277;28;20703;-53
2021/09/24 04:57:12;;;;;;;10.23;6.47;;;;;;;14.88;85.24;96559.19;4977193;28;20421;-59
2021/09/24 04:59:38;;;;;;;11.30;7.20;;;;;;;14.94;84.68;96560.84;4977174;28;20830;-59
2021/09/24 05:02:03;;;;;;;7.03;6.33;;;;;;;15.00;84.17;96559.84;4976887;28;20226;-53
2021/09/24 05:04:29;;;;;;;13.80;7.50;;;;;;;15.03;83.63;96558.53;4976591;28;20645;-59
2021/09/24 05:06:54;;;;;;;7.13;6.10;;;;;;;15.07;83.22;96554.38;4977032;28;20209;-52
2021/09/24 05:09:20;;;;;;;6.90;6.30;;;;;;;15.14;82.54;96565.56;4976682;28;20233;-53
2021/09/24 05:11:45;;;;;;;6.43;5.83;;;;;;;15.11;82.44;96564.19;4975231;28;20557;-59
2021/09/24 05:14:10;;;;;;;6.70;6.13;;;;;;;15.14;82.17;96557.59;4976436;28;20170;-52
2021/09/24 05:16:36;;;;;;;8.30;6.47;;;;;;;15.15;81.92;96556.53;4975444;28;20225;-59
2021/09/24 05:19:01;;;;;;;6.70;6.10;;;;;;;15.10;82.43;96562.59;4976722;28;20170;-59
2021/09/24 05:21:26;;;;;;;7.57;6.87;;;;;;;15.01;83.41;96563.28;4976676;28;20268;-58
2021/09/24 05:23:52;;;;;;;7.20;6.50;;;;;;;14.86;84.20;96563.09;4976210;28;20178;-59
2021/09/24 05:26:17;;;;;;;7.30;6.60;;;;;;;14.79;84.82;96554.56;4976223;28;20617;-52
2021/09/24 05:28:42;;;;;;;7.70;6.90;;;;;;;14.76;85.22;96565.63;4976425;28;20174;-59
2021/09/24 05:31:08;;;;;;;9.30;7.17;;;;;;;14.76;85.44;96565.63;4976546;28;20178;-59
2021/09/24 05:33:33;;;;;;;11.60;6.80;;;;;;;14.73;85.82;96571.44;4976116;28;20588;-59
2021/09/24 05:35:59;;;;;;;13.60;7.10;;;;;;;14.59;86.79;96568.34;4976344;28;20664;-52
2021/09/24 05:38:24;;;;;;;12.13;7.53;;;;;;;14.68;86.41;96563.41;4976064;28;20209;-58
2021/09/24 05:40:50;;;;;;;6.67;6.07;;;;;;;14.48;87.37;96568.44;4975788;28;20533;-59
2021/09/24 05:43:15;;;;;;;7.40;6.70;;;;;;;14.48;87.77;96565.81;4975991;28;20188;-59
2021/09/24 05:45:40;;;;;;;8.33;7.27;;;;;;;14.34;88.65;96568.81;4976129;28;20241;-59
2021/09/24 05:48:06;;;;;;;7.80;6.63;;;;;;;14.27;88.95;96562.09;4975972;28;20177;-59
2021/09/24 05:50:31;;;;;;;7.70;7.00;;;;;;;14.00;90.32;96567.25;4976219;28;20178;-52
2021/09/24 05:52:58;;;;;;;8.03;7.27;;;;;;;14.15;90.30;96561.38;4975762;28;20170;-52
2021/09/24 05:55:24;;;;;;;8.03;6.77;;;;;;;13.83;91.87;96561.16;4975577;28;20205;-58
2021/09/24 05:57:51;;;;;;;8.20;7.00;;;;;;;13.98;91.44;96560.59;4976086;28;20413;-59
2021/09/24 06:00:19;;;;;;;9.83;7.70;;;;;;;14.06;91.54;96568.09;4975986;28;20622;-59
2021/09/24 06:02:46;;;;;;;9.10;7.60;;;;;;;14.15;90.90;96564.81;4975476;28;20460;-52
2021/09/24 06:05:13;;;;;;;13.30;7.00;;;;;;;14.38;89.69;96569.91;4975766;28;20913;-59
2021/09/24 06:07:39;;;;;;;8.53;7.00;;;;;;;14.43;89.73;96572.66;4975822;28;20508;-53
2021/09/24 06:10:06;;;;;;;7.50;6.80;;;;;;;14.49;89.33;96575.34;4975549;28;20457;-52
2021/09/24 06:12:32;;;;;;;9.17;7.00;;;;;;;14.44;89.88;96576.88;4975812;28;20762;-52
2021/09/24 06:15:00;;;;;;;9.00;7.33;;;;;;;14.38;89.82;96577.06;4975281;28;20483;-52
2021/09/24 06:17:27;;;;;;;8.73;7.80;;;;;;;14.32;90.46;96570.91;4975672;28;20505;-59
2021/09/24 06:19:53;;;;;;;9.97;7.00;;;;;;;14.61;89.64;96574.19;4975627;28;20428;-53
2021/09/24 06:22:18;;;;;;;9.40;7.00;;;;;;;14.74;88.63;96570.38;4975261;28;20457;-53
2021/09/24 06:24:45;;;;;;;6.80;6.10;;;;;;;14.71;88.65;96578.81;4974758;28;20206;-53
2021/09/24 06:27:14;;;;;;;7.30;6.60;;;;;;;14.86;88.18;96568.41;4975225;28;20240;-52
2021/09/24 06:29:49;;;;;;;7.53;6.50;;;;;;;14.89;87.84;96578.50;4975476;28;20437;-59
2021/09/24 06:32:15;;;;;;;10.27;6.10;;;;;;;14.82;88.55;96585.84;4975416;28;20536;-59
2021/09/24 06:34:43;;;;;;;7.57;6.87;;;;;;;14.90;88.13;96575.59;4974359;28;20464;-53
2021/09/24 06:37:08;;;;;;;7.40;6.70;;;;;;;14.87;88.23;96580.59;4975478;28;20436;-53
2021/09/24 06:39:34;;;;;;;7.80;7.10;;;;;;;15.00;88.07;96578.34;4975378;28;20417;-52
2021/09/24 06:41:59;;;;;;;7.90;7.20;;;;;;;15.03;87.81;96585.81;4974911;28;20206;-52
2021/09/24 06:44:25;;;;;;;7.47;6.67;;;;;;;14.88;88.77;96595.41;4974795;28;20197;-58
2021/09/24 06:46:50;;;;;;;9.10;7.57;;;;;;;14.97;88.25;96586.81;4975203;28;20193;-59
2021/09/24 06:49:16;;;;;;;9.10;7.20;;;;;;;14.89;88.72;96591.72;4974912;28;20190;-59
2021/09/24 06:51:42;;;;;;;7.67;6.97;;;;;;;15.01;88.53;96582.63;4975547;28;20178;-59
2021/09/24 06:54:08;;;;;;;9.07;7.90;;;;;;;15.06;88.10;96587.16;4974128;28;20641;-53
2021/09/24 06:56:34;;;;;;;7.07;6.37;;;;;;;15.25;87.81;96591.88;4973584;28;20469;-59
2021/09/24 06:59:00;;;;;;;7.77;6.80;;;;;;;15.21;88.32;96590.78;4974975;28;20414;-59
2021/09/24 07:01:27;;;;;;;10.77;6.97;;;;;;;15.32;88.21;96591.69;4974392;28;20464;-53
2021/09/24 07:03:52;;;;;;;6.90;6.23;;;;;;;15.45;87.42;96593.97;4974471;28;20473;-59
2021/09/24 07:06:18;;;;;;;7.87;6.50;;;;;;;15.48;87.28;96598.75;4974879;28;20445;-53
2021/09/24 07:08:43;;;;;;;6.93;6.33;;;;;;;15.36;87.55;96593.56;4975128;28;20184;-59
2021/09/24 07:11:08;;;;;;;7.23;6.53;;;;;;;15.67;86.72;96597.34;4975069;28;20170;-52
2021/09/24 07:13:34;;;;;;;7.77;7.07;;;;;;;15.65;86.26;96601.31;4974451;28;20178;-52
2021/09/24 07:15:59;;;;;;;7.90;7.20;;;;;;;15.57;86.11;96589.31;4974386;28;20228;-59
2021/09/24 07:18:25;;;;;;;8.47;7.50;;;;;;;15.59;86.79;96599.66;4974747;28;20309;-59
2021/09/24 07:20:50;;;;;;;8.13;7.10;;;;;;;15.56;86.93;96600.16;4974722;28;20174;-53
2021/09/24 07:23:16;;;;;;;8.10;6.37;;;;;;;15.82;86.13;96599.31;4974064;28;20261;-59
2021/09/24 07:25:41;;;;;;;7.83;7.00;;;;;;;15.82;86.35;96594.81;4974690;28;20194;-52
2021/09/24 07:28:06;;;;;;;6.67;6.07;;;;;;;15.88;85.90;96596.47;4974720;28;20170;-52
2021/09/24 07:30:32;;;;;;;10.67;7.50;;;;;;;15.81;86.23;96603.03;4974689;28;20178;-59
2021/09/24 07:32:57;;;;;;;7.67;6.80;;;;;;;15.76;86.39;96593.19;4974057;28;20170;-53
2021/09/24 07:35:23;;;;;;;7.63;6.70;;;;;;;15.92;86.27;96588.81;4974622;28;20661;-58
2021/09/24 07:37:48;;;;;;;7.57;6.87;;;;;;;16.13;85.08;96594.00;4974010;28;20184;-53
2021/09/24 07:40:14;;;;;;;8.43;7.13;;;;;;;16.25;84.53;96599.91;4974498;28;20174;-59
2021/09/24 07:42:39;;;;;;;8.87;7.20;;;;;;;16.32;84.26;96600.50;4974193;28;20198;-58
2021/09/24 07:45:06;;;;;;;7.40;6.53;;;;;;;16.36;84.15;96609.56;4974921;28;20194;-53
2021/09/24 07:47:32;;;;;;;9.10;6.83;;;;;;;16.44;84.01;96603.78;4978282;28;20221;-53
2021/09/24 07:49:57;;;;;;;7.97;7.27;;;;;;;16.38;84.14;96604.78;4978434;28;20414;-52
2021/09/24 07:52:22;;;;;;;7.57;6.80;;;;;;;16.27;84.84;96603.13;4977972;28;20180;-57
2021/09/24 07:54:48;;;;;;;7.73;6.77;;;;;;;16.35;84.67;96615.13;4977775;28;20585;-59
2021/09/24 07:57:14;;;;;;;7.63;7.00;;;;;;;16.56;83.58;96606.25;4978258;28;20209;-53
2021/09/24 07:59:39;;;;;;;8.10;7.40;;;;;;;16.73;83.17;96614.84;4978140;28;20173;-52
2021/09/24 08:02:05;;;;;;;9.60;6.60;;;;;;;16.88;82.80;96606.16;4978100;28;20194;-53
2021/09/24 08:04:30;;;;;;;8.40;7.60;;;;;;;16.84;82.64;96615.69;4977548;28;20174;-53
2021/09/24 08:06:55;;;;;;;8.27;7.47;;;;;;;16.89;82.21;96613.84;4977976;28;20178;-53
2021/09/24 08:09:21;;;;;;;7.37;6.77;;;;;;;16.93;82.32;96622.91;4977726;28;20285;-53
2021/09/24 08:11:47;;;;;;;7.03;6.40;;;;;;;16.78;82.47;96620.16;4977925;28;20225;-52
2021/09/24 08:14:14;;;;;;;8.80;7.00;;;;;;;16.89;82.28;96618.34;4977398;28;20170;-57
2021/09/24 08:16:40;;;;;;;7.37;6.63;;;;;;;17.19;81.12;96629.13;4958418;28;20206;-59
2021/09/24 08:19:05;;;;;;;8.17;7.37;;;;;;;17.20;80.39;96630.72;4958360;28;20402;-59
2021/09/24 08:21:30;;;;;;;8.40;7.20;;;;;;;17.36;80.12;96630.50;4958505;28;20333;-53
2021/09/24 08:23:56;;;;;;;6.90;6.20;;;;;;;17.39;79.83;96627.31;4958129;28;20179;-53
2021/09/24 08:26:22;;;;;;;13.00;6.67;;;;;;;17.60;78.51;96625.53;4958299;28;20183;-52
2021/09/24 08:28:48;;;;;;;7.20;6.50;;;;;;;17.54;78.41;96631.91;4958264;28;20174;-59
2021/09/24 08:31:14;;;;;;;7.43;6.73;;;;;;;17.79;77.90;96623.97;4976478;28;20425;-53
2021/09/24 08:33:39;;;;;;;6.60;6.10;;;;;;;18.04;77.94;96617.88;4977276;28;20412;-59
2021/09/24 08:36:05;;;;;;;7.40;6.60;;;;;;;17.99;77.40;96623.97;4977532;28;20202;-53
2021/09/24 08:38:30;;;;;;;6.90;6.20;;;;;;;18.14;77.50;96624.00;4977180;28;20178;-52
2021/09/24 08:40:56;;;;;;;7.03;6.33;;;;;;;18.25;77.01;96614.94;4977222;28;20540;-59
2021/09/24 08:43:21;;;;;;;6.90;6.30;;;;;;;18.46;76.44;96619.19;4977090;28;20249;-53
2021/09/24 08:45:48;;;;;;;8.90;6.30;;;;;;;18.56;75.76;96618.38;4976823;28;20546;-59
2021/09/24 08:48:15;;;;;;;7.20;6.50;;;;;;;18.53;74.55;96615.47;4977382;28;20185;-59
2021/09/24 08:50:41;;;;;;;7.03;6.40;;;;;;;18.38;74.75;96619.72;4977163;28;20488;-53
2021/09/24 08:53:09;;;;;;;7.90;7.10;;;;;;;18.43;73.99;96617.09;4976801;28;20406;-59
2021/09/24 08:55:35;;;;;;;7.23;6.47;;;;;;;18.54;74.45;96615.19;4976864;28;20437;-53
2021/09/24 08:58:01;;;;;;;7.20;6.53;;;;;;;18.55;74.64;96624.00;4976877;28;20413;-59
2021/09/24 09:00:28;;;;;;;6.53;5.93;;;;;;;18.79;74.08;96617.03;4976683;28;20677;-59
2021/09/24 09:02:57;;;;;;;6.70;6.10;;;;;;;18.83;73.67;96620.72;4976997;28;20292;-59
2021/09/24 09:05:26;;;;;;;7.13;6.40;;;;;;;19.02;73.61;96619.06;4976861;28;20816;-59
2021/09/24 09:08:13;;;;;;;5.90;5.40;;;;;;;19.13;72.73;96621.41;4976797;28;20566;-60
2021/09/24 09:10:41;;;;;;;6.03;5.47;;;;;;;19.08;71.01;96617.97;4976786;28;20896;-59
2021/09/24 09:13:09;;;;;;;7.90;6.50;;;;;;;19.19;72.02;96617.66;4976537;28;20414;-59
2021/09/24 09:15:35;;;;;;;6.00;5.50;;;;;;;19.26;72.27;96614.69;4976450;28;20449;-53
2021/09/24 09:18:00;;;;;;;6.80;5.50;;;;;;;19.34;71.77;96609.63;4976812;28;20420;-53
2021/09/24 09:20:30;;;;;;;7.10;5.40;;;;;;;19.56;71.91;96621.75;4976726;28;20178;-59
2021/09/24 09:22:58;;;;;;;5.83;4.70;;;;;;;19.62;71.54;96615.34;4976391;28;20575;-53
2021/09/24 09:25:32;;;;;;;5.83;5.30;;;;;;;19.84;71.46;96611.16;4976616;28;20437;-59
2021/09/24 09:28:06;;;;;;;5.80;5.30;;;;;;;19.93;71.86;96620.19;4976637;28;20409;-54
2021/09/24 09:30:33;;;;;;;5.37;4.97;;;;;;;20.00;69.36;96620.66;4976101;28;20473;-52
2021/09/24 09:33:04;;;;;;;5.00;4.60;;;;;;;20.09;70.72;96612.88;4975730;28;20418;-59
2021/09/24 09:35:41;;;;;;;5.93;4.73;;;;;;;20.17;69.09;96614.94;4976132;28;20437;-53
2021/09/24 09:38:16;;;;;;;5.47;4.97;;;;;;;20.32;69.60;96618.31;4976113;28;20897;-53
2021/09/24 09:40:42;;;;;;;5.07;4.67;;;;;;;20.26;69.44;96622.09;4975991;28;20779;-53
2021/09/24 09:43:07;;;;;;;4.93;4.53;;;;;;;20.39;69.22;96617.97;4975536;28;20457;-59
2021/09/24 09:45:32;;;;;;;4.23;3.93;;;;;;;20.54;69.47;96623.19;4975896;28;20197;-59
2021/09/24 09:47:58;;;;;;;6.93;4.77;;;;;;;20.63;69.34;96618.81;4975558;28;20190;-54
2021/09/24 09:50:26;;;;;;;5.53;5.13;;;;;;;20.61;66.68;96614.81;4975974;28;20178;-59
2021/09/24 09:53:04;;;;;;;5.50;4.80;;;;;;;20.73;67.21;96616.03;4975609;28;20257;-53
2021/09/24 09:55:33;;;;;;;5.37;4.20;;;;;;;20.90;68.71;96618.25;4975065;28;20539;-56
2021/09/24 09:58:03;;;;;;;5.33;4.17;;;;;;;20.93;68.40;96607.78;4975802;28;20549;-55
2021/09/24 10:00:31;;;;;;;4.67;3.83;;;;;;;21.09;68.55;96609.22;4975747;28;20437;-56
2021/09/24 10:03:05;;;;;;;3.77;3.50;;;;;;;21.19;67.35;96600.28;4975214;28;20453;-59
2021/09/24 10:05:32;;;;;;;4.27;3.80;;;;;;;21.27;66.58;96602.34;4975081;28;20456;-55
2021/09/24 10:07:58;;;;;;;4.67;4.27;;;;;;;20.98;63.07;96605.03;4974334;28;20426;-55
2021/09/24 10:10:24;;;;;;;6.40;5.40;;;;;;;21.21;64.23;96609.63;4975379;28;20436;-54
2021/09/24 10:12:49;;;;;;;7.10;5.50;;;;;;;20.98;63.66;96602.38;4975483;28;20177;-58
2021/09/24 10:15:15;;;;;;;5.83;4.40;;;;;;;21.17;64.69;96602.47;4975340;28;20277;-54
2021/09/24 10:17:42;;;;;;;4.03;3.73;;;;;;;21.23;63.68;96606.66;4975192;28;20182;-58
2021/09/24 10:20:10;;;;;;;3.70;3.50;;;;;;;21.21;61.69;96600.81;4975247;28;20417;-58
2021/09/24 10:22:36;;;;;;;4.07;3.77;;;;;;;21.28;62.76;96596.72;4974439;28;20501;-57
2021/09/24 10:25:03;;;;;;;3.57;3.27;;;;;;;21.41;65.41;96598.66;4975156;28;20504;-59
2021/09/24 10:27:35;;;;;;;3.77;3.47;;;;;;;21.52;61.36;96593.19;4975236;28;20437;-54
2021/09/24 10:30:18;;;;;;;3.50;3.20;;;;;;;21.52;60.12;96592.06;4975034;28;20414;-55
2021/09/24 10:32:53;;;;;;;3.67;3.37;;;;;;;21.69;61.19;96591.56;4974735;28;20707;-58
2021/09/24 10:35:18;;;;;;;4.80;3.17;;;;;;;21.67;65.24;96584.94;4975141;28;20436;-54
2021/09/24 10:37:47;;;;;;;3.30;3.00;;;;;;;21.81;64.11;96589.31;4974530;28;20433;-58
2021/09/24 10:40:21;;;;;;;6.00;3.70;;;;;;;21.91;62.87;96582.97;4975090;28;20174;-55
2021/09/24 10:42:51;;;;;;;3.50;3.30;;;;;;;22.01;62.59;96580.94;4974407;28;20449;-58
2021/09/24 10:45:40;;;;;;;5.90;4.57;;;;;;;22.01;62.24;96582.84;4974807;28;20954;-55
2021/09/24 10:48:22;;;;;;;4.20;3.90;;;;;;;21.81;57.98;96575.13;4973698;28;20425;-55
2021/09/24 10:50:51;;;;;;;4.00;3.70;;;;;;;21.84;58.20;96577.19;4974756;28;20496;-59
2021/09/24 10:53:21;;;;;;;3.80;3.50;;;;;;;21.87;58.92;96574.75;4974553;28;20414;-58
2021/09/24 10:55:47;;;;;;;6.70;4.47;;;;;;;21.64;60.20;96574.81;4974762;28;20441;-58
2021/09/24 10:58:31;;;;;;;3.70;3.33;;;;;;;21.78;60.27;96578.31;4974210;28;20935;-54
2021/09/24 11:01:06;;;;;;;4.10;3.70;;;;;;;21.95;58.61;96573.28;4974870;28;20186;-58
2021/09/24 11:03:34;;;;;;;6.67;3.63;;;;;;;21.95;58.23;96571.41;4974253;28;20413;-58
2021/09/24 11:06:09;;;;;;;4.20;3.90;;;;;;;21.73;56.74;96573.88;4974319;28;20445;-54
2021/09/24 11:08:37;;;;;;;4.07;3.77;;;;;;;21.92;58.86;96576.56;4974540;28;20421;-54
2021/09/24 11:11:05;;;;;;;4.73;4.27;;;;;;;21.99;60.16;96566.25;4974822;28;20432;-58
2021/09/24 11:13:32;;;;;;;4.80;4.40;;;;;;;22.15;60.00;96563.06;4974116;28;20414;-55
2021/09/24 11:16:05;;;;;;;6.33;4.27;;;;;;;22.17;57.54;96563.56;4974240;28;20948;-55
2021/09/24 11:18:49;;;;;;;4.43;4.03;;;;;;;22.32;56.17;96557.91;4974563;28;20872;-59
2021/09/24 11:21:25;;;;;;;4.33;4.03;;;;;;;22.16;56.77;96567.31;4973950;28;20516;-54
2021/09/24 11:23:54;;;;;;;5.10;4.63;;;;;;;21.99;55.43;96559.03;4973862;28;20445;-54
2021/09/24 11:26:20;;;;;;;5.80;4.23;;;;;;;22.10;57.43;96565.78;4974282;28;20441;-58
2021/09/24 11:28:47;;;;;;;4.40;3.80;;;;;;;22.30;55.96;96562.00;4974261;28;20429;-58
2021/09/24 11:31:15;;;;;;;3.80;3.50;;;;;;;22.25;56.02;96557.50;4974240;28;20913;-55